BAW115 LIRA-HECA
Flight info
| Callsign | BAW115 |
|---|---|
| Flight time | 3h 1m |
| Altitude | FL310 |
| Route | RATIR SIPRO INGAB RUTOM UM601 TRL UL612 SIT UL612 KUMBI L612 BLT A16 MERPI |
| Aircraft | COMT/M-SDFGHRWY/L |
Departure
| Time | 2026-05-08 13:52 |
|---|---|
| Airport | Ciampino–G. B. Pastine International Airport (LIRA) |
Arrival
| Time | 2026-05-08 16:53 |
|---|---|
| Airport | Cairo International Airport (HECA) |
| Time | Latitude | Longitude | Altitude | Speed | Heading |
|---|---|---|---|---|---|
| 2026-05-08 13:32 | 41.80154 | 12.58944 | 434 ft | 0 kts | 144° |
| 2026-05-08 13:45 | 41.80153 | 12.58944 | 434 ft | 0 kts | 144° |
| 2026-05-08 13:46 | 41.80153 | 12.58945 | 434 ft | 0 kts | 144° |
| 2026-05-08 13:47 | 41.80144 | 12.58954 | 434 ft | 2 kts | 144° |
| 2026-05-08 13:47 | 41.80121 | 12.58976 | 434 ft | 6 kts | 142° |
| 2026-05-08 13:47 | 41.80117 | 12.59011 | 434 ft | 4 kts | 41° |
| 2026-05-08 13:47 | 41.80135 | 12.59039 | 434 ft | 5 kts | 52° |
| 2026-05-08 13:48 | 41.80164 | 12.59089 | 434 ft | 6 kts | 43° |
| 2026-05-08 13:48 | 41.80209 | 12.59087 | 434 ft | 8 kts | 330° |
| 2026-05-08 13:48 | 41.80268 | 12.59043 | 434 ft | 11 kts | 329° |
| 2026-05-08 13:48 | 41.80346 | 12.58988 | 434 ft | 14 kts | 332° |
| 2026-05-08 13:49 | 41.80445 | 12.58921 | 434 ft | 19 kts | 334° |
| 2026-05-08 13:49 | 41.80568 | 12.58837 | 434 ft | 19 kts | 331° |
| 2026-05-08 13:49 | 41.80653 | 12.58780 | 434 ft | 9 kts | 334° |
| 2026-05-08 13:49 | 41.80715 | 12.58759 | 434 ft | 9 kts | 22° |
| 2026-05-08 13:50 | 41.80748 | 12.58818 | 434 ft | 8 kts | 63° |
| 2026-05-08 13:50 | 41.80761 | 12.58882 | 434 ft | 7 kts | 99° |
| 2026-05-08 13:50 | 41.80735 | 12.58930 | 434 ft | 0 kts | 152° |
| 2026-05-08 13:50 | 41.80734 | 12.58930 | 434 ft | 0 kts | 152° |
| 2026-05-08 13:51 | 41.80637 | 12.58998 | 434 ft | 35 kts | 154° |
| 2026-05-08 13:51 | 41.80292 | 12.59236 | 434 ft | 76 kts | 154° |
| 2026-05-08 13:51 | 41.79698 | 12.59639 | 435 ft | 115 kts | 156° |
| 2026-05-08 13:51 | 41.78908 | 12.60173 | 556 ft | 135 kts | 155° |
| 2026-05-08 13:52 | 41.78056 | 12.60747 | 874 ft | 138 kts | 155° |
| 2026-05-08 13:52 | 41.77154 | 12.61218 | 1152 ft | 145 kts | 170° |
| 2026-05-08 13:52 | 41.76159 | 12.60957 | 1374 ft | 151 kts | 208° |
| 2026-05-08 13:52 | 41.75478 | 12.59900 | 1632 ft | 158 kts | 244° |
| 2026-05-08 13:53 | 41.75393 | 12.58397 | 1766 ft | 171 kts | 279° |
| 2026-05-08 13:53 | 41.75800 | 12.56795 | 1856 ft | 193 kts | 287° |
| 2026-05-08 13:53 | 41.76253 | 12.55111 | 2320 ft | 192 kts | 288° |
| 2026-05-08 13:53 | 41.76434 | 12.53284 | 2379 ft | 209 kts | 263° |
| 2026-05-08 13:54 | 41.75748 | 12.51548 | 2549 ft | 213 kts | 219° |
| 2026-05-08 13:54 | 41.74437 | 12.50653 | 2940 ft | 215 kts | 204° |
| 2026-05-08 13:54 | 41.73025 | 12.49825 | 3136 ft | 227 kts | 204° |
| 2026-05-08 13:54 | 41.71637 | 12.49024 | 3908 ft | 209 kts | 204° |
| 2026-05-08 13:55 | 41.70293 | 12.48261 | 4279 ft | 218 kts | 204° |
| 2026-05-08 13:55 | 41.68831 | 12.47328 | 4183 ft | 249 kts | 211° |
| 2026-05-08 13:55 | 41.65345 | 12.44649 | 3375 ft | 329 kts | 200° |
| 2026-05-08 13:56 | 41.63071 | 12.44142 | 3834 ft | 334 kts | 183° |
| 2026-05-08 13:56 | 41.60757 | 12.44492 | 4267 ft | 337 kts | 167° |
| 2026-05-08 13:56 | 41.58592 | 12.45674 | 4689 ft | 340 kts | 152° |
| 2026-05-08 13:56 | 41.56732 | 12.47605 | 5105 ft | 342 kts | 136° |
| 2026-05-08 13:57 | 41.55317 | 12.50153 | 5509 ft | 343 kts | 120° |
| 2026-05-08 13:57 | 41.54462 | 12.53123 | 5904 ft | 345 kts | 103° |
| 2026-05-08 13:57 | 41.54233 | 12.56292 | 6308 ft | 345 kts | 87° |
| 2026-05-08 13:57 | 41.54649 | 12.59421 | 6739 ft | 344 kts | 72° |
| 2026-05-08 13:58 | 41.55624 | 12.62328 | 7219 ft | 342 kts | 62° |
| 2026-05-08 13:58 | 41.56461 | 12.65296 | 7667 ft | 342 kts | 76° |
| 2026-05-08 13:58 | 41.56838 | 12.68423 | 8147 ft | 341 kts | 83° |
| 2026-05-08 13:58 | 41.57018 | 12.71573 | 8590 ft | 341 kts | 86° |
| 2026-05-08 13:59 | 41.57178 | 12.74723 | 9027 ft | 341 kts | 85° |
| 2026-05-08 13:59 | 41.57407 | 12.77871 | 9466 ft | 340 kts | 83° |
| 2026-05-08 13:59 | 41.57720 | 12.80989 | 9904 ft | 340 kts | 81° |
| 2026-05-08 13:59 | 41.58103 | 12.84109 | 10341 ft | 339 kts | 80° |
| 2026-05-08 14:00 | 41.58536 | 12.87189 | 10768 ft | 338 kts | 79° |
| 2026-05-08 14:00 | 41.58992 | 12.90256 | 11188 ft | 337 kts | 79° |
| 2026-05-08 14:00 | 41.59446 | 12.93327 | 11601 ft | 336 kts | 79° |
| 2026-05-08 14:00 | 41.59897 | 12.96389 | 12008 ft | 336 kts | 79° |
| 2026-05-08 14:01 | 41.60336 | 12.99437 | 12404 ft | 335 kts | 80° |
| 2026-05-08 14:01 | 41.60762 | 13.02498 | 12798 ft | 336 kts | 80° |
| 2026-05-08 14:01 | 41.61184 | 13.05578 | 13190 ft | 338 kts | 80° |
| 2026-05-08 14:01 | 41.61603 | 13.08667 | 13581 ft | 339 kts | 81° |
| 2026-05-08 14:02 | 41.62021 | 13.11760 | 13969 ft | 341 kts | 81° |
| 2026-05-08 14:02 | 41.62441 | 13.14886 | 14358 ft | 342 kts | 81° |
| 2026-05-08 14:02 | 41.62862 | 13.18014 | 14745 ft | 343 kts | 81° |
| 2026-05-08 14:02 | 41.63287 | 13.21140 | 15127 ft | 343 kts | 81° |
| 2026-05-08 14:03 | 41.63717 | 13.24283 | 15508 ft | 344 kts | 81° |
| 2026-05-08 14:03 | 41.63989 | 13.27456 | 15868 ft | 344 kts | 91° |
| 2026-05-08 14:03 | 41.63637 | 13.30595 | 16224 ft | 342 kts | 107° |
| 2026-05-08 14:03 | 41.62742 | 13.33515 | 16595 ft | 341 kts | 118° |
| 2026-05-08 14:04 | 41.61519 | 13.36212 | 16971 ft | 340 kts | 126° |
| 2026-05-08 14:04 | 41.60143 | 13.38777 | 17334 ft | 339 kts | 128° |
| 2026-05-08 14:04 | 41.58722 | 13.41279 | 17685 ft | 340 kts | 129° |
| 2026-05-08 14:04 | 41.57302 | 13.43801 | 18031 ft | 340 kts | 128° |
| 2026-05-08 14:05 | 41.55907 | 13.46359 | 18370 ft | 341 kts | 127° |
| 2026-05-08 14:05 | 41.54543 | 13.48945 | 18703 ft | 341 kts | 127° |
| 2026-05-08 14:05 | 41.53204 | 13.51571 | 19023 ft | 342 kts | 126° |
| 2026-05-08 14:05 | 41.51887 | 13.54200 | 19327 ft | 343 kts | 126° |
| 2026-05-08 14:06 | 41.50555 | 13.56859 | 19588 ft | 346 kts | 126° |
| 2026-05-08 14:06 | 41.49212 | 13.59531 | 19844 ft | 348 kts | 126° |
| 2026-05-08 14:06 | 41.47845 | 13.62209 | 20104 ft | 350 kts | 126° |
| 2026-05-08 14:06 | 41.46471 | 13.64891 | 20367 ft | 352 kts | 127° |
| 2026-05-08 14:07 | 41.45050 | 13.67555 | 20634 ft | 353 kts | 129° |
| 2026-05-08 14:07 | 41.43562 | 13.70149 | 20902 ft | 354 kts | 131° |
| 2026-05-08 14:07 | 41.42000 | 13.72703 | 21175 ft | 354 kts | 132° |
| 2026-05-08 14:07 | 41.40404 | 13.75208 | 21447 ft | 355 kts | 133° |
| 2026-05-08 14:08 | 41.38781 | 13.77676 | 21717 ft | 355 kts | 134° |
| 2026-05-08 14:08 | 41.37152 | 13.80143 | 21987 ft | 356 kts | 134° |
| 2026-05-08 14:08 | 41.35526 | 13.82627 | 22254 ft | 356 kts | 134° |
| 2026-05-08 14:08 | 41.33904 | 13.85116 | 22522 ft | 358 kts | 134° |
| 2026-05-08 14:09 | 41.32271 | 13.87624 | 22793 ft | 360 kts | 134° |
| 2026-05-08 14:09 | 41.30630 | 13.90146 | 23067 ft | 361 kts | 134° |
| 2026-05-08 14:09 | 41.28982 | 13.92679 | 23343 ft | 363 kts | 134° |
| 2026-05-08 14:09 | 41.27327 | 13.95209 | 23619 ft | 364 kts | 134° |
| 2026-05-08 14:10 | 41.25656 | 13.97753 | 23898 ft | 366 kts | 134° |
| 2026-05-08 14:10 | 41.23985 | 14.00306 | 24176 ft | 367 kts | 134° |
| 2026-05-08 14:10 | 41.22306 | 14.02857 | 24454 ft | 367 kts | 134° |
| 2026-05-08 14:10 | 41.20634 | 14.05408 | 24731 ft | 368 kts | 134° |
| 2026-05-08 14:11 | 41.18947 | 14.07966 | 25008 ft | 368 kts | 134° |
| 2026-05-08 14:11 | 41.17264 | 14.10528 | 25282 ft | 368 kts | 134° |
| 2026-05-08 14:11 | 41.15573 | 14.13090 | 25556 ft | 368 kts | 134° |
| 2026-05-08 14:11 | 41.13896 | 14.15637 | 25824 ft | 368 kts | 134° |
| 2026-05-08 14:12 | 41.12207 | 14.18192 | 26092 ft | 369 kts | 134° |
| 2026-05-08 14:12 | 41.10518 | 14.20754 | 26359 ft | 369 kts | 134° |
| 2026-05-08 14:12 | 41.08825 | 14.23310 | 26573 ft | 371 kts | 134° |
| 2026-05-08 14:12 | 41.07119 | 14.25891 | 26781 ft | 373 kts | 134° |
| 2026-05-08 14:13 | 41.05408 | 14.28473 | 26993 ft | 375 kts | 134° |
| 2026-05-08 14:13 | 41.03686 | 14.31074 | 27208 ft | 376 kts | 134° |
| 2026-05-08 14:13 | 41.01950 | 14.33685 | 27423 ft | 378 kts | 134° |
| 2026-05-08 14:13 | 41.00215 | 14.36302 | 27638 ft | 379 kts | 134° |
| 2026-05-08 14:14 | 40.98479 | 14.38910 | 27853 ft | 380 kts | 134° |
| 2026-05-08 14:14 | 40.96731 | 14.41542 | 28069 ft | 381 kts | 134° |
| 2026-05-08 14:14 | 40.94975 | 14.44176 | 28285 ft | 382 kts | 134° |
| 2026-05-08 14:14 | 40.93225 | 14.46805 | 28499 ft | 383 kts | 134° |
| 2026-05-08 14:15 | 40.91461 | 14.49447 | 28714 ft | 383 kts | 134° |
| 2026-05-08 14:15 | 40.89698 | 14.52091 | 28921 ft | 384 kts | 134° |
| 2026-05-08 14:15 | 40.87926 | 14.54743 | 29099 ft | 386 kts | 134° |
| 2026-05-08 14:15 | 40.86147 | 14.57401 | 29279 ft | 387 kts | 134° |
| 2026-05-08 14:16 | 40.84372 | 14.60057 | 29458 ft | 388 kts | 134° |
| 2026-05-08 14:16 | 40.82579 | 14.62728 | 29606 ft | 390 kts | 134° |
| 2026-05-08 14:16 | 40.80777 | 14.65419 | 29725 ft | 392 kts | 134° |
| 2026-05-08 14:16 | 40.78971 | 14.68102 | 29863 ft | 394 kts | 134° |
| 2026-05-08 14:17 | 40.77152 | 14.70805 | 30009 ft | 395 kts | 134° |
| 2026-05-08 14:17 | 40.75335 | 14.73520 | 30155 ft | 395 kts | 134° |
| 2026-05-08 14:17 | 40.73509 | 14.76237 | 30301 ft | 396 kts | 134° |
| 2026-05-08 14:17 | 40.71683 | 14.78942 | 30446 ft | 397 kts | 134° |
| 2026-05-08 14:18 | 40.69870 | 14.81643 | 30591 ft | 397 kts | 134° |
| 2026-05-08 14:18 | 40.68017 | 14.84377 | 30736 ft | 397 kts | 134° |
| 2026-05-08 14:18 | 40.66189 | 14.87097 | 30876 ft | 398 kts | 134° |
| 2026-05-08 14:19 | 40.62484 | 14.92566 | 30984 ft | 403 kts | 134° |
| 2026-05-08 14:19 | 40.58722 | 14.98122 | 30982 ft | 411 kts | 134° |
| 2026-05-08 14:20 | 40.54903 | 15.03755 | 30966 ft | 415 kts | 134° |
| 2026-05-08 14:20 | 40.51064 | 15.09406 | 30964 ft | 414 kts | 134° |
| 2026-05-08 14:21 | 40.47234 | 15.15023 | 30966 ft | 413 kts | 134° |
| 2026-05-08 14:21 | 40.43395 | 15.20643 | 30966 ft | 414 kts | 134° |
| 2026-05-08 14:22 | 40.39556 | 15.26258 | 30964 ft | 415 kts | 135° |
| 2026-05-08 14:22 | 40.35709 | 15.31937 | 30957 ft | 418 kts | 137° |
| 2026-05-08 14:23 | 40.31902 | 15.37776 | 30963 ft | 425 kts | 135° |
| 2026-05-08 14:23 | 40.27943 | 15.43617 | 30965 ft | 432 kts | 136° |
| 2026-05-08 14:24 | 40.23889 | 15.49465 | 30965 ft | 438 kts | 137° |
| 2026-05-08 14:24 | 40.20444 | 15.54405 | 30965 ft | 443 kts | 137° |
| 2026-05-08 14:25 | 40.16299 | 15.60404 | 30965 ft | 448 kts | 136° |
| 2026-05-08 14:25 | 40.12097 | 15.66454 | 30969 ft | 451 kts | 135° |
| 2026-05-08 14:26 | 40.07837 | 15.72461 | 30964 ft | 450 kts | 136° |
| 2026-05-08 14:26 | 40.03596 | 15.78444 | 30963 ft | 450 kts | 134° |
| 2026-05-08 14:27 | 39.99762 | 15.84904 | 30964 ft | 451 kts | 126° |
| 2026-05-08 14:27 | 39.96552 | 15.91906 | 30964 ft | 450 kts | 121° |
| 2026-05-08 14:28 | 39.93563 | 15.99063 | 30963 ft | 449 kts | 120° |
| 2026-05-08 14:28 | 39.90515 | 16.06147 | 30964 ft | 448 kts | 121° |
| 2026-05-08 14:29 | 39.87374 | 16.13115 | 30962 ft | 446 kts | 122° |
| 2026-05-08 14:29 | 39.84222 | 16.20061 | 30957 ft | 446 kts | 122° |
| 2026-05-08 14:30 | 39.81107 | 16.26987 | 30957 ft | 445 kts | 122° |
| 2026-05-08 14:30 | 39.77958 | 16.33914 | 30958 ft | 444 kts | 122° |
| 2026-05-08 14:31 | 39.74822 | 16.40823 | 30958 ft | 443 kts | 122° |
| 2026-05-08 14:31 | 39.71669 | 16.47688 | 30948 ft | 442 kts | 122° |
| 2026-05-08 14:32 | 39.66947 | 16.57924 | 30945 ft | 440 kts | 122° |
| 2026-05-08 14:32 | 39.63809 | 16.64719 | 30941 ft | 440 kts | 122° |
| 2026-05-08 14:33 | 39.60694 | 16.71537 | 30938 ft | 439 kts | 122° |
| 2026-05-08 14:33 | 39.57573 | 16.78306 | 30939 ft | 438 kts | 122° |
| 2026-05-08 14:34 | 39.54453 | 16.85086 | 30937 ft | 438 kts | 122° |
| 2026-05-08 14:34 | 39.51333 | 16.91837 | 30939 ft | 437 kts | 122° |
| 2026-05-08 14:35 | 39.48205 | 16.98584 | 30939 ft | 437 kts | 122° |
| 2026-05-08 14:35 | 39.45087 | 17.05322 | 30937 ft | 437 kts | 122° |
| 2026-05-08 14:36 | 39.41961 | 17.12055 | 30938 ft | 437 kts | 122° |
| 2026-05-08 14:36 | 39.38840 | 17.18771 | 30940 ft | 437 kts | 122° |
| 2026-05-08 14:37 | 39.35711 | 17.25500 | 30941 ft | 437 kts | 122° |
| 2026-05-08 14:37 | 39.32636 | 17.32267 | 30936 ft | 441 kts | 124° |
| 2026-05-08 14:38 | 39.29662 | 17.39268 | 30942 ft | 448 kts | 125° |
| 2026-05-08 14:38 | 39.26582 | 17.46303 | 30945 ft | 454 kts | 127° |
| 2026-05-08 14:39 | 39.23316 | 17.53334 | 30944 ft | 459 kts | 128° |
| 2026-05-08 14:39 | 39.19969 | 17.60390 | 30945 ft | 465 kts | 128° |
| 2026-05-08 14:40 | 39.16560 | 17.67528 | 30945 ft | 470 kts | 128° |
| 2026-05-08 14:40 | 39.13117 | 17.74708 | 30945 ft | 474 kts | 128° |
| 2026-05-08 14:41 | 39.09660 | 17.81999 | 30944 ft | 479 kts | 128° |
| 2026-05-08 14:41 | 39.06174 | 17.89298 | 30946 ft | 481 kts | 128° |
| 2026-05-08 14:42 | 39.02665 | 17.96662 | 30946 ft | 484 kts | 128° |
| 2026-05-08 14:42 | 38.99137 | 18.04039 | 30947 ft | 486 kts | 128° |
| 2026-05-08 14:43 | 38.95578 | 18.11458 | 30950 ft | 488 kts | 128° |
| 2026-05-08 14:43 | 38.92013 | 18.18868 | 30947 ft | 490 kts | 128° |
| 2026-05-08 14:44 | 38.88423 | 18.26317 | 30947 ft | 491 kts | 128° |
| 2026-05-08 14:44 | 38.84841 | 18.33744 | 30959 ft | 488 kts | 127° |
| 2026-05-08 14:45 | 38.81201 | 18.41002 | 30964 ft | 479 kts | 126° |
| 2026-05-08 14:45 | 38.77568 | 18.48037 | 30965 ft | 470 kts | 126° |
| 2026-05-08 14:46 | 38.74078 | 18.55050 | 30973 ft | 464 kts | 124° |
| 2026-05-08 14:46 | 38.70716 | 18.62036 | 30979 ft | 459 kts | 124° |
| 2026-05-08 14:47 | 38.67374 | 18.68962 | 30974 ft | 456 kts | 125° |
| 2026-05-08 14:47 | 38.64131 | 18.75923 | 30988 ft | 458 kts | 126° |
| 2026-05-08 14:48 | 38.60902 | 18.82963 | 30998 ft | 459 kts | 127° |
| 2026-05-08 14:48 | 38.57559 | 18.89924 | 30995 ft | 461 kts | 128° |
| 2026-05-08 14:49 | 38.54120 | 18.96839 | 30994 ft | 463 kts | 128° |
| 2026-05-08 14:49 | 38.51086 | 19.04126 | 31010 ft | 470 kts | 119° |
| 2026-05-08 14:50 | 38.48817 | 19.12009 | 31023 ft | 475 kts | 112° |
| 2026-05-08 14:50 | 38.46887 | 19.20074 | 31015 ft | 477 kts | 111° |
| 2026-05-08 14:51 | 38.44899 | 19.28148 | 31017 ft | 477 kts | 112° |
| 2026-05-08 14:51 | 38.42760 | 19.36140 | 31018 ft | 477 kts | 112° |
| 2026-05-08 14:52 | 38.39446 | 19.48127 | 31020 ft | 478 kts | 112° |
| 2026-05-08 14:53 | 38.37308 | 19.56147 | 31023 ft | 479 kts | 111° |
| 2026-05-08 14:53 | 38.35180 | 19.64191 | 31021 ft | 479 kts | 112° |
| 2026-05-08 14:54 | 38.33013 | 19.72199 | 31029 ft | 479 kts | 112° |
| 2026-05-08 14:54 | 38.30850 | 19.80217 | 31040 ft | 479 kts | 112° |
| 2026-05-08 14:55 | 38.28680 | 19.88241 | 31041 ft | 480 kts | 112° |
| 2026-05-08 14:55 | 38.26504 | 19.96253 | 31045 ft | 480 kts | 112° |
| 2026-05-08 14:56 | 38.24311 | 20.04275 | 31046 ft | 480 kts | 112° |
| 2026-05-08 14:56 | 38.22116 | 20.12299 | 31043 ft | 480 kts | 112° |
| 2026-05-08 14:57 | 38.19924 | 20.20305 | 31047 ft | 480 kts | 112° |
| 2026-05-08 14:57 | 38.17721 | 20.28312 | 31048 ft | 481 kts | 112° |
| 2026-05-08 14:58 | 38.15510 | 20.36326 | 31047 ft | 481 kts | 112° |
| 2026-05-08 14:58 | 38.13290 | 20.44325 | 31051 ft | 481 kts | 112° |
| 2026-05-08 14:59 | 38.10988 | 20.52292 | 31052 ft | 480 kts | 115° |
| 2026-05-08 14:59 | 38.06858 | 20.63802 | 31049 ft | 478 kts | 120° |
| 2026-05-08 15:00 | 38.03904 | 20.71353 | 31049 ft | 478 kts | 120° |
| 2026-05-08 15:00 | 38.00996 | 20.78913 | 31049 ft | 478 kts | 120° |
| 2026-05-08 15:01 | 37.98108 | 20.86515 | 31048 ft | 478 kts | 120° |
| 2026-05-08 15:01 | 37.95233 | 20.94101 | 31041 ft | 479 kts | 120° |
| 2026-05-08 15:02 | 37.92354 | 21.01697 | 31038 ft | 479 kts | 120° |
| 2026-05-08 15:02 | 37.89483 | 21.09267 | 31035 ft | 479 kts | 120° |
| 2026-05-08 15:03 | 37.86585 | 21.16874 | 31030 ft | 479 kts | 120° |
| 2026-05-08 15:03 | 37.83676 | 21.24438 | 31027 ft | 479 kts | 120° |
| 2026-05-08 15:04 | 37.80760 | 21.32003 | 31028 ft | 479 kts | 120° |
| 2026-05-08 15:04 | 37.77850 | 21.39554 | 31029 ft | 478 kts | 120° |
| 2026-05-08 15:05 | 37.74930 | 21.47109 | 31028 ft | 479 kts | 120° |
| 2026-05-08 15:05 | 37.72005 | 21.54649 | 31030 ft | 479 kts | 120° |
| 2026-05-08 15:06 | 37.69071 | 21.62190 | 31037 ft | 478 kts | 120° |
| 2026-05-08 15:06 | 37.66140 | 21.69706 | 31036 ft | 479 kts | 120° |
| 2026-05-08 15:07 | 37.63195 | 21.77241 | 31033 ft | 478 kts | 120° |
| 2026-05-08 15:07 | 37.60258 | 21.84754 | 31063 ft | 478 kts | 120° |
| 2026-05-08 15:08 | 37.57807 | 21.90996 | 31073 ft | 478 kts | 120° |
| 2026-05-08 15:08 | 37.54365 | 21.99739 | 31071 ft | 478 kts | 120° |
| 2026-05-08 15:09 | 37.51410 | 22.07224 | 31077 ft | 478 kts | 120° |
| 2026-05-08 15:09 | 37.48455 | 22.14717 | 31080 ft | 478 kts | 120° |
| 2026-05-08 15:10 | 37.45483 | 22.22194 | 31079 ft | 478 kts | 120° |
| 2026-05-08 15:10 | 37.42523 | 22.29668 | 31081 ft | 478 kts | 121° |
| 2026-05-08 15:11 | 37.39347 | 22.36984 | 31081 ft | 475 kts | 126° |
| 2026-05-08 15:11 | 37.35662 | 22.43817 | 31081 ft | 472 kts | 131° |
| 2026-05-08 15:12 | 37.31723 | 22.50398 | 31082 ft | 471 kts | 133° |
| 2026-05-08 15:12 | 37.27804 | 22.56975 | 31081 ft | 472 kts | 131° |
| 2026-05-08 15:13 | 37.23945 | 22.63646 | 31089 ft | 471 kts | 131° |
| 2026-05-08 15:13 | 37.20146 | 22.70297 | 31089 ft | 468 kts | 131° |
| 2026-05-08 15:14 | 37.16332 | 22.76883 | 31095 ft | 466 kts | 131° |
| 2026-05-08 15:14 | 37.12521 | 22.83411 | 31097 ft | 464 kts | 131° |
| 2026-05-08 15:15 | 37.08735 | 22.89940 | 31094 ft | 463 kts | 131° |
| 2026-05-08 15:15 | 37.04967 | 22.96389 | 31106 ft | 461 kts | 131° |
| 2026-05-08 15:16 | 37.01193 | 23.02862 | 31127 ft | 460 kts | 131° |
| 2026-05-08 15:16 | 36.97424 | 23.09306 | 31122 ft | 460 kts | 131° |
| 2026-05-08 15:17 | 36.93648 | 23.15749 | 31113 ft | 459 kts | 131° |
| 2026-05-08 15:17 | 36.89882 | 23.22169 | 31141 ft | 458 kts | 131° |
| 2026-05-08 15:18 | 36.86117 | 23.28585 | 31166 ft | 458 kts | 132° |
| 2026-05-08 15:18 | 36.82995 | 23.33934 | 31163 ft | 459 kts | 132° |
| 2026-05-08 15:19 | 36.79247 | 23.40363 | 31158 ft | 459 kts | 132° |
| 2026-05-08 15:19 | 36.75440 | 23.46765 | 31167 ft | 459 kts | 133° |
| 2026-05-08 15:20 | 36.71631 | 23.53141 | 31189 ft | 460 kts | 132° |
| 2026-05-08 15:20 | 36.67823 | 23.59540 | 31187 ft | 460 kts | 133° |
| 2026-05-08 15:21 | 36.64002 | 23.65940 | 31188 ft | 461 kts | 132° |
| 2026-05-08 15:21 | 36.60178 | 23.72318 | 31185 ft | 461 kts | 133° |
| 2026-05-08 15:22 | 36.56356 | 23.78710 | 31185 ft | 461 kts | 133° |
| 2026-05-08 15:22 | 36.52513 | 23.85094 | 31183 ft | 461 kts | 133° |
| 2026-05-08 15:23 | 36.48673 | 23.91492 | 31172 ft | 462 kts | 133° |
| 2026-05-08 15:23 | 36.44822 | 23.97870 | 31163 ft | 462 kts | 133° |
| 2026-05-08 15:24 | 36.40981 | 24.04275 | 31164 ft | 463 kts | 132° |
| 2026-05-08 15:24 | 36.37150 | 24.10669 | 31147 ft | 463 kts | 132° |
| 2026-05-08 15:25 | 36.33285 | 24.17088 | 31119 ft | 465 kts | 132° |
| 2026-05-08 15:25 | 36.29417 | 24.23506 | 31113 ft | 466 kts | 132° |
| 2026-05-08 15:26 | 36.25541 | 24.29942 | 31110 ft | 466 kts | 133° |
| 2026-05-08 15:26 | 36.21657 | 24.36361 | 31110 ft | 467 kts | 132° |
| 2026-05-08 15:27 | 36.17749 | 24.42763 | 31113 ft | 467 kts | 133° |
| 2026-05-08 15:27 | 36.13833 | 24.49171 | 31113 ft | 467 kts | 133° |
| 2026-05-08 15:28 | 36.09913 | 24.55582 | 31113 ft | 467 kts | 133° |
| 2026-05-08 15:28 | 36.05992 | 24.61968 | 31115 ft | 468 kts | 133° |
| 2026-05-08 15:29 | 36.02080 | 24.68354 | 31115 ft | 468 kts | 133° |
| 2026-05-08 15:29 | 35.98144 | 24.74752 | 31117 ft | 468 kts | 133° |
| 2026-05-08 15:30 | 35.94212 | 24.81133 | 31117 ft | 468 kts | 133° |
| 2026-05-08 15:30 | 35.90239 | 24.87483 | 31123 ft | 467 kts | 132° |
| 2026-05-08 15:31 | 35.86264 | 24.93797 | 31129 ft | 467 kts | 132° |
| 2026-05-08 15:31 | 35.82314 | 25.00155 | 31135 ft | 467 kts | 131° |
| 2026-05-08 15:32 | 35.78386 | 25.06515 | 31137 ft | 467 kts | 131° |
| 2026-05-08 15:32 | 35.74424 | 25.12859 | 31139 ft | 467 kts | 131° |
| 2026-05-08 15:33 | 35.70480 | 25.19197 | 31140 ft | 467 kts | 131° |
| 2026-05-08 15:33 | 35.66510 | 25.25539 | 31141 ft | 468 kts | 131° |
| 2026-05-08 15:34 | 35.62551 | 25.31858 | 31141 ft | 468 kts | 131° |
| 2026-05-08 15:34 | 35.58577 | 25.38194 | 31141 ft | 468 kts | 131° |
| 2026-05-08 15:35 | 35.54608 | 25.44504 | 31141 ft | 468 kts | 132° |
| 2026-05-08 15:35 | 35.50624 | 25.50818 | 31141 ft | 468 kts | 132° |
| 2026-05-08 15:36 | 35.46656 | 25.57123 | 31145 ft | 468 kts | 132° |
| 2026-05-08 15:36 | 35.42672 | 25.63429 | 31146 ft | 468 kts | 132° |
| 2026-05-08 15:37 | 35.38690 | 25.69723 | 31145 ft | 468 kts | 132° |
| 2026-05-08 15:37 | 35.34702 | 25.76022 | 31144 ft | 468 kts | 132° |
| 2026-05-08 15:38 | 35.30720 | 25.82307 | 31156 ft | 468 kts | 132° |
| 2026-05-08 15:38 | 35.26731 | 25.88599 | 31157 ft | 468 kts | 132° |
| 2026-05-08 15:39 | 35.22749 | 25.94877 | 31154 ft | 468 kts | 132° |
| 2026-05-08 15:39 | 35.18764 | 26.01154 | 31153 ft | 468 kts | 132° |
| 2026-05-08 15:40 | 35.14719 | 26.07374 | 31173 ft | 467 kts | 131° |
| 2026-05-08 15:40 | 35.10639 | 26.13556 | 31177 ft | 467 kts | 131° |
| 2026-05-08 15:41 | 35.06671 | 26.19834 | 31174 ft | 469 kts | 128° |
| 2026-05-08 15:41 | 35.03044 | 26.26462 | 31177 ft | 470 kts | 124° |
| 2026-05-08 15:42 | 34.99663 | 26.33262 | 31181 ft | 470 kts | 123° |
| 2026-05-08 15:42 | 34.96269 | 26.40085 | 31184 ft | 470 kts | 123° |
| 2026-05-08 15:43 | 34.92831 | 26.46848 | 31185 ft | 470 kts | 124° |
| 2026-05-08 15:43 | 34.89349 | 26.53590 | 31181 ft | 470 kts | 124° |
| 2026-05-08 15:44 | 34.85892 | 26.60350 | 31184 ft | 471 kts | 125° |
| 2026-05-08 15:44 | 34.82443 | 26.67118 | 31180 ft | 472 kts | 125° |
| 2026-05-08 15:45 | 34.78972 | 26.73898 | 31178 ft | 472 kts | 125° |
| 2026-05-08 15:45 | 34.75448 | 26.80651 | 31175 ft | 473 kts | 125° |
| 2026-05-08 15:46 | 34.71946 | 26.87406 | 31172 ft | 473 kts | 126° |
| 2026-05-08 15:46 | 34.68426 | 26.94161 | 31176 ft | 473 kts | 125° |
| 2026-05-08 15:47 | 34.64899 | 27.00905 | 31170 ft | 474 kts | 125° |
| 2026-05-08 15:47 | 34.61372 | 27.07647 | 31171 ft | 474 kts | 126° |
| 2026-05-08 15:48 | 34.56063 | 27.17774 | 31173 ft | 474 kts | 126° |
| 2026-05-08 15:49 | 34.52529 | 27.24503 | 31179 ft | 474 kts | 126° |
| 2026-05-08 15:49 | 34.48991 | 27.31232 | 31179 ft | 474 kts | 126° |
| 2026-05-08 15:50 | 34.45438 | 27.37962 | 31177 ft | 474 kts | 125° |
| 2026-05-08 15:50 | 34.41932 | 27.44534 | 31184 ft | 474 kts | 125° |
| 2026-05-08 15:51 | 34.38395 | 27.51155 | 31185 ft | 473 kts | 125° |
| 2026-05-08 15:51 | 34.34822 | 27.57843 | 31182 ft | 473 kts | 125° |
| 2026-05-08 15:52 | 34.31256 | 27.64517 | 31181 ft | 473 kts | 125° |
| 2026-05-08 15:52 | 34.27706 | 27.71202 | 31186 ft | 473 kts | 125° |
| 2026-05-08 15:53 | 34.24139 | 27.77887 | 31188 ft | 473 kts | 125° |
| 2026-05-08 15:53 | 34.20577 | 27.84547 | 31187 ft | 473 kts | 125° |
| 2026-05-08 15:54 | 34.17003 | 27.91221 | 31188 ft | 473 kts | 125° |
| 2026-05-08 15:54 | 34.13432 | 27.97887 | 31191 ft | 473 kts | 125° |
| 2026-05-08 15:55 | 34.09864 | 28.04543 | 31189 ft | 473 kts | 125° |
| 2026-05-08 15:55 | 34.04512 | 28.14522 | 31191 ft | 473 kts | 125° |
| 2026-05-08 15:56 | 34.00938 | 28.21179 | 31192 ft | 473 kts | 125° |
| 2026-05-08 15:56 | 33.97369 | 28.27824 | 31190 ft | 473 kts | 125° |
| 2026-05-08 15:57 | 33.93784 | 28.34463 | 31191 ft | 473 kts | 126° |
| 2026-05-08 15:57 | 33.90187 | 28.41084 | 31193 ft | 473 kts | 125° |
| 2026-05-08 15:58 | 33.86587 | 28.47696 | 31192 ft | 473 kts | 125° |
| 2026-05-08 15:58 | 33.82982 | 28.54319 | 31192 ft | 473 kts | 126° |
| 2026-05-08 15:59 | 33.79359 | 28.60910 | 31192 ft | 472 kts | 125° |
| 2026-05-08 15:59 | 33.75747 | 28.67461 | 31191 ft | 470 kts | 125° |
| 2026-05-08 16:00 | 33.72090 | 28.73968 | 31213 ft | 468 kts | 128° |
| 2026-05-08 16:00 | 33.67897 | 28.79874 | 31251 ft | 464 kts | 137° |
| 2026-05-08 16:01 | 33.63179 | 28.85130 | 31252 ft | 462 kts | 141° |
| 2026-05-08 16:01 | 33.58336 | 28.90207 | 31198 ft | 464 kts | 141° |
| 2026-05-08 16:02 | 33.53554 | 28.95398 | 31197 ft | 464 kts | 140° |
| 2026-05-08 16:02 | 33.48855 | 29.00681 | 31191 ft | 464 kts | 139° |
| 2026-05-08 16:03 | 33.44162 | 29.05971 | 31193 ft | 464 kts | 140° |
| 2026-05-08 16:03 | 33.39443 | 29.11209 | 31187 ft | 464 kts | 140° |
| 2026-05-08 16:04 | 33.34709 | 29.16462 | 31179 ft | 464 kts | 140° |
| 2026-05-08 16:04 | 33.29993 | 29.21701 | 31180 ft | 463 kts | 140° |
| 2026-05-08 16:05 | 33.25271 | 29.26934 | 31184 ft | 463 kts | 140° |
| 2026-05-08 16:05 | 33.20547 | 29.32155 | 31176 ft | 463 kts | 140° |
| 2026-05-08 16:06 | 33.15823 | 29.37387 | 31174 ft | 463 kts | 140° |
| 2026-05-08 16:06 | 33.11101 | 29.42593 | 31174 ft | 463 kts | 140° |
| 2026-05-08 16:07 | 33.06363 | 29.47803 | 31176 ft | 463 kts | 140° |
| 2026-05-08 16:07 | 33.01651 | 29.53003 | 31173 ft | 463 kts | 140° |
| 2026-05-08 16:08 | 32.96916 | 29.58209 | 31165 ft | 463 kts | 140° |
| 2026-05-08 16:08 | 32.92188 | 29.63398 | 31167 ft | 463 kts | 140° |
| 2026-05-08 16:09 | 32.88246 | 29.67722 | 31167 ft | 463 kts | 140° |
| 2026-05-08 16:09 | 32.82724 | 29.73778 | 31163 ft | 463 kts | 140° |
| 2026-05-08 16:10 | 32.77994 | 29.78971 | 31156 ft | 463 kts | 140° |
| 2026-05-08 16:10 | 32.73275 | 29.84151 | 31157 ft | 463 kts | 140° |
| 2026-05-08 16:11 | 32.68530 | 29.89339 | 31153 ft | 463 kts | 140° |
| 2026-05-08 16:11 | 32.63738 | 29.94443 | 31150 ft | 465 kts | 139° |
| 2026-05-08 16:12 | 32.58882 | 29.99539 | 31153 ft | 467 kts | 139° |
| 2026-05-08 16:12 | 32.54061 | 30.04709 | 31139 ft | 469 kts | 138° |
| 2026-05-08 16:13 | 32.50058 | 30.09072 | 31132 ft | 470 kts | 138° |
| 2026-05-08 16:13 | 32.45227 | 30.14299 | 31130 ft | 471 kts | 139° |
| 2026-05-08 16:14 | 32.40367 | 30.19518 | 31132 ft | 472 kts | 138° |
| 2026-05-08 16:14 | 32.35516 | 30.24732 | 31131 ft | 472 kts | 139° |
| 2026-05-08 16:15 | 32.30658 | 30.29955 | 31130 ft | 473 kts | 139° |
| 2026-05-08 16:15 | 32.25781 | 30.35179 | 31130 ft | 473 kts | 139° |
| 2026-05-08 16:16 | 32.20906 | 30.40387 | 31130 ft | 474 kts | 139° |
| 2026-05-08 16:16 | 32.16025 | 30.45610 | 31130 ft | 474 kts | 139° |
| 2026-05-08 16:17 | 32.11147 | 30.50817 | 31130 ft | 474 kts | 139° |
| 2026-05-08 16:17 | 32.06249 | 30.56024 | 31129 ft | 474 kts | 139° |
| 2026-05-08 16:18 | 32.01364 | 30.61232 | 31131 ft | 474 kts | 139° |
| 2026-05-08 16:18 | 31.96460 | 30.66432 | 31129 ft | 474 kts | 139° |
| 2026-05-08 16:19 | 31.91563 | 30.71635 | 31129 ft | 474 kts | 139° |
| 2026-05-08 16:19 | 31.86664 | 30.76814 | 31128 ft | 474 kts | 139° |
| 2026-05-08 16:20 | 31.81757 | 30.82010 | 31128 ft | 475 kts | 139° |
| 2026-05-08 16:20 | 31.76859 | 30.87186 | 31127 ft | 474 kts | 139° |
| 2026-05-08 16:21 | 31.72074 | 30.92238 | 31122 ft | 448 kts | 139° |
| 2026-05-08 16:21 | 31.69791 | 30.94650 | 31066 ft | 436 kts | 139° |
| 2026-05-08 16:21 | 31.67556 | 30.97014 | 30924 ft | 428 kts | 139° |
| 2026-05-08 16:22 | 31.65365 | 30.99332 | 30686 ft | 423 kts | 139° |
| 2026-05-08 16:22 | 31.63198 | 31.01624 | 30445 ft | 418 kts | 139° |
| 2026-05-08 16:22 | 31.61049 | 31.03898 | 30199 ft | 414 kts | 139° |
| 2026-05-08 16:22 | 31.58914 | 31.06155 | 29925 ft | 412 kts | 139° |
| 2026-05-08 16:23 | 31.56790 | 31.08401 | 29579 ft | 411 kts | 139° |
| 2026-05-08 16:23 | 31.54613 | 31.10561 | 29233 ft | 410 kts | 144° |
| 2026-05-08 16:23 | 31.52224 | 31.12331 | 28877 ft | 407 kts | 155° |
| 2026-05-08 16:23 | 31.49624 | 31.13589 | 28529 ft | 403 kts | 165° |
| 2026-05-08 16:24 | 31.46926 | 31.14369 | 28191 ft | 399 kts | 172° |
| 2026-05-08 16:24 | 31.44178 | 31.14849 | 27862 ft | 397 kts | 176° |
| 2026-05-08 16:24 | 31.41670 | 31.15165 | 27564 ft | 396 kts | 178° |
| 2026-05-08 16:24 | 31.38931 | 31.15491 | 27240 ft | 395 kts | 177° |
| 2026-05-08 16:25 | 31.36204 | 31.15852 | 26919 ft | 395 kts | 176° |
| 2026-05-08 16:25 | 31.33481 | 31.16268 | 26600 ft | 394 kts | 175° |
| 2026-05-08 16:25 | 31.30778 | 31.16730 | 26283 ft | 394 kts | 174° |
| 2026-05-08 16:25 | 31.28076 | 31.17220 | 25969 ft | 393 kts | 174° |
| 2026-05-08 16:26 | 31.25380 | 31.17737 | 25655 ft | 392 kts | 173° |
| 2026-05-08 16:26 | 31.22695 | 31.18244 | 25345 ft | 391 kts | 174° |
| 2026-05-08 16:26 | 31.20020 | 31.18740 | 25037 ft | 390 kts | 174° |
| 2026-05-08 16:26 | 31.17344 | 31.19230 | 24730 ft | 389 kts | 174° |
| 2026-05-08 16:27 | 31.14673 | 31.19721 | 24426 ft | 388 kts | 173° |
| 2026-05-08 16:27 | 31.12009 | 31.20224 | 24124 ft | 387 kts | 173° |
| 2026-05-08 16:27 | 31.09374 | 31.20710 | 23758 ft | 381 kts | 174° |
| 2026-05-08 16:27 | 31.06781 | 31.21191 | 23362 ft | 374 kts | 173° |
| 2026-05-08 16:28 | 31.04236 | 31.21667 | 22967 ft | 367 kts | 174° |
| 2026-05-08 16:28 | 31.01745 | 31.22123 | 22574 ft | 360 kts | 174° |
| 2026-05-08 16:28 | 30.99294 | 31.22586 | 22182 ft | 354 kts | 173° |
| 2026-05-08 16:28 | 30.96881 | 31.23060 | 21789 ft | 349 kts | 173° |
| 2026-05-08 16:29 | 30.94508 | 31.23538 | 21397 ft | 343 kts | 173° |
| 2026-05-08 16:29 | 30.92170 | 31.24013 | 21005 ft | 339 kts | 173° |
| 2026-05-08 16:29 | 30.89872 | 31.24479 | 20616 ft | 334 kts | 173° |
| 2026-05-08 16:29 | 30.87597 | 31.24938 | 20227 ft | 330 kts | 173° |
| 2026-05-08 16:30 | 30.85351 | 31.25388 | 19839 ft | 326 kts | 173° |
| 2026-05-08 16:30 | 30.83137 | 31.25829 | 19455 ft | 322 kts | 173° |
| 2026-05-08 16:30 | 30.80935 | 31.26264 | 19070 ft | 319 kts | 173° |
| 2026-05-08 16:30 | 30.78760 | 31.26689 | 18687 ft | 316 kts | 173° |
| 2026-05-08 16:31 | 30.76608 | 31.27105 | 18307 ft | 312 kts | 173° |
| 2026-05-08 16:31 | 30.74473 | 31.27511 | 17928 ft | 309 kts | 173° |
| 2026-05-08 16:31 | 30.72364 | 31.27907 | 17552 ft | 306 kts | 173° |
| 2026-05-08 16:31 | 30.70268 | 31.28295 | 17178 ft | 304 kts | 173° |
| 2026-05-08 16:32 | 30.68199 | 31.28672 | 16807 ft | 301 kts | 173° |
| 2026-05-08 16:32 | 30.66131 | 31.29043 | 16435 ft | 298 kts | 173° |
| 2026-05-08 16:32 | 30.64096 | 31.29403 | 16068 ft | 296 kts | 173° |
| 2026-05-08 16:32 | 30.62065 | 31.29757 | 15701 ft | 293 kts | 173° |
| 2026-05-08 16:33 | 30.60059 | 31.30101 | 15336 ft | 291 kts | 173° |
| 2026-05-08 16:33 | 30.58057 | 31.30440 | 14928 ft | 290 kts | 173° |
| 2026-05-08 16:33 | 30.56069 | 31.30771 | 14524 ft | 289 kts | 173° |
| 2026-05-08 16:33 | 30.54080 | 31.31097 | 14121 ft | 288 kts | 173° |
| 2026-05-08 16:34 | 30.52097 | 31.31419 | 13720 ft | 287 kts | 173° |
| 2026-05-08 16:34 | 30.50121 | 31.31736 | 13322 ft | 286 kts | 173° |
| 2026-05-08 16:34 | 30.48158 | 31.32050 | 12928 ft | 285 kts | 173° |
| 2026-05-08 16:34 | 30.46197 | 31.32360 | 12535 ft | 284 kts | 173° |
| 2026-05-08 16:35 | 30.44242 | 31.32668 | 12144 ft | 283 kts | 173° |
| 2026-05-08 16:35 | 30.42303 | 31.32972 | 11757 ft | 282 kts | 173° |
| 2026-05-08 16:35 | 30.40359 | 31.33260 | 11370 ft | 281 kts | 173° |
| 2026-05-08 16:35 | 30.38424 | 31.33529 | 10987 ft | 280 kts | 174° |
| 2026-05-08 16:36 | 30.36492 | 31.33790 | 10604 ft | 278 kts | 174° |
| 2026-05-08 16:36 | 30.34609 | 31.34041 | 10101 ft | 264 kts | 174° |
| 2026-05-08 16:36 | 30.32871 | 31.34271 | 9544 ft | 240 kts | 174° |
| 2026-05-08 16:36 | 30.31261 | 31.34482 | 8898 ft | 228 kts | 174° |
| 2026-05-08 16:37 | 30.29717 | 31.34679 | 8257 ft | 219 kts | 174° |
| 2026-05-08 16:37 | 30.28228 | 31.34864 | 7629 ft | 213 kts | 174° |
| 2026-05-08 16:37 | 30.26770 | 31.35034 | 7006 ft | 209 kts | 174° |
| 2026-05-08 16:37 | 30.25338 | 31.35192 | 6390 ft | 205 kts | 174° |
| 2026-05-08 16:38 | 30.23925 | 31.35340 | 5787 ft | 205 kts | 174° |
| 2026-05-08 16:38 | 30.22461 | 31.35482 | 5270 ft | 218 kts | 174° |
| 2026-05-08 16:38 | 30.20880 | 31.35631 | 4790 ft | 240 kts | 173° |
| 2026-05-08 16:38 | 30.19191 | 31.35783 | 4614 ft | 245 kts | 174° |
| 2026-05-08 16:39 | 30.17481 | 31.35934 | 4475 ft | 247 kts | 174° |
| 2026-05-08 16:39 | 30.15793 | 31.36078 | 4501 ft | 242 kts | 174° |
| 2026-05-08 16:39 | 30.14124 | 31.36218 | 4504 ft | 238 kts | 174° |
| 2026-05-08 16:39 | 30.12495 | 31.36353 | 4496 ft | 235 kts | 174° |
| 2026-05-08 16:40 | 30.10862 | 31.36386 | 4488 ft | 231 kts | 185° |
| 2026-05-08 16:40 | 30.09358 | 31.35934 | 4478 ft | 220 kts | 198° |
| 2026-05-08 16:40 | 30.07931 | 31.35331 | 4337 ft | 216 kts | 201° |
| 2026-05-08 16:40 | 30.06553 | 31.34705 | 4182 ft | 212 kts | 201° |
| 2026-05-08 16:41 | 30.05191 | 31.34074 | 4020 ft | 208 kts | 201° |
| 2026-05-08 16:41 | 30.03860 | 31.33451 | 3855 ft | 205 kts | 202° |
| 2026-05-08 16:41 | 30.02552 | 31.32838 | 3684 ft | 203 kts | 201° |
| 2026-05-08 16:42 | 29.99901 | 31.31580 | 3174 ft | 209 kts | 202° |
| 2026-05-08 16:42 | 29.98561 | 31.30941 | 2919 ft | 211 kts | 201° |
| 2026-05-08 16:42 | 29.97193 | 31.30283 | 2669 ft | 212 kts | 202° |
| 2026-05-08 16:42 | 29.95837 | 31.29632 | 2430 ft | 214 kts | 201° |
| 2026-05-08 16:43 | 29.94463 | 31.28967 | 2342 ft | 208 kts | 202° |
| 2026-05-08 16:43 | 29.93203 | 31.28222 | 2396 ft | 203 kts | 217° |
| 2026-05-08 16:43 | 29.92339 | 31.26997 | 2410 ft | 193 kts | 246° |
| 2026-05-08 16:43 | 29.92071 | 31.25592 | 2396 ft | 167 kts | 276° |
| 2026-05-08 16:44 | 29.92375 | 31.24437 | 2402 ft | 138 kts | 304° |
| 2026-05-08 16:44 | 29.92813 | 31.23547 | 2390 ft | 120 kts | 309° |
| 2026-05-08 16:44 | 29.93381 | 31.22953 | 2358 ft | 104 kts | 344° |
| 2026-05-08 16:44 | 29.94057 | 31.22881 | 2433 ft | 96 kts | 3° |
| 2026-05-08 16:45 | 29.94758 | 31.22853 | 2423 ft | 105 kts | 2° |
| 2026-05-08 16:45 | 29.95513 | 31.22812 | 2415 ft | 112 kts | 1° |
| 2026-05-08 16:45 | 29.96301 | 31.22752 | 2406 ft | 115 kts | 0° |
| 2026-05-08 16:45 | 29.97103 | 31.22680 | 2397 ft | 116 kts | 359° |
| 2026-05-08 16:46 | 29.97903 | 31.22600 | 2400 ft | 115 kts | 359° |
| 2026-05-08 16:46 | 29.98695 | 31.22508 | 2396 ft | 114 kts | 358° |
| 2026-05-08 16:46 | 29.99467 | 31.22506 | 2411 ft | 108 kts | 16° |
| 2026-05-08 16:46 | 30.00049 | 31.23057 | 2338 ft | 114 kts | 52° |
| 2026-05-08 16:47 | 30.00303 | 31.23952 | 2299 ft | 118 kts | 72° |
| 2026-05-08 16:47 | 30.00495 | 31.24841 | 2368 ft | 111 kts | 66° |
| 2026-05-08 16:47 | 30.00687 | 31.25691 | 2394 ft | 111 kts | 73° |
| 2026-05-08 16:47 | 30.00736 | 31.26595 | 2376 ft | 113 kts | 79° |
| 2026-05-08 16:48 | 30.00962 | 31.27453 | 2347 ft | 112 kts | 63° |
| 2026-05-08 16:48 | 30.01357 | 31.28233 | 2292 ft | 114 kts | 53° |
| 2026-05-08 16:48 | 30.01806 | 31.28991 | 2272 ft | 115 kts | 50° |
| 2026-05-08 16:48 | 30.02297 | 31.29702 | 2296 ft | 111 kts | 47° |
| 2026-05-08 16:49 | 30.02801 | 31.30332 | 2374 ft | 105 kts | 45° |
| 2026-05-08 16:49 | 30.03279 | 31.30994 | 2350 ft | 108 kts | 46° |
| 2026-05-08 16:49 | 30.03753 | 31.31652 | 2371 ft | 107 kts | 47° |
| 2026-05-08 16:49 | 30.04247 | 31.32309 | 2351 ft | 109 kts | 45° |
| 2026-05-08 16:50 | 30.04751 | 31.32980 | 2279 ft | 116 kts | 47° |
| 2026-05-08 16:50 | 30.05295 | 31.33721 | 2171 ft | 123 kts | 46° |
| 2026-05-08 16:50 | 30.05891 | 31.34463 | 1982 ft | 134 kts | 45° |
| 2026-05-08 16:50 | 30.06527 | 31.35282 | 1783 ft | 137 kts | 46° |
| 2026-05-08 16:51 | 30.07149 | 31.36084 | 1518 ft | 130 kts | 45° |
| 2026-05-08 16:51 | 30.07725 | 31.36817 | 1168 ft | 118 kts | 46° |
| 2026-05-08 16:51 | 30.08243 | 31.37530 | 936 ft | 114 kts | 46° |
| 2026-05-08 16:51 | 30.08750 | 31.38202 | 781 ft | 109 kts | 46° |
| 2026-05-08 16:52 | 30.09242 | 31.38849 | 639 ft | 105 kts | 46° |
| 2026-05-08 16:52 | 30.09712 | 31.39471 | 530 ft | 102 kts | 46° |
| 2026-05-08 16:52 | 30.10168 | 31.40081 | 420 ft | 96 kts | 46° |
| 2026-05-08 16:52 | 30.10567 | 31.40615 | 390 ft | 76 kts | 46° |
| 2026-05-08 16:53 | 30.10945 | 31.41092 | 389 ft | 15 kts | 52° |
| 2026-05-08 16:53 | 30.11007 | 31.41169 | 389 ft | 11 kts | 37° |
| 2026-05-08 16:53 | 30.11075 | 31.41214 | 389 ft | 13 kts | 27° |
| 2026-05-08 16:54 | 30.11164 | 31.41263 | 389 ft | 16 kts | 25° |
| 2026-05-08 16:54 | 30.11253 | 31.41312 | 389 ft | 11 kts | 24° |
| 2026-05-08 16:54 | 30.11328 | 31.41352 | 389 ft | 13 kts | 15° |
| 2026-05-08 16:54 | 30.11427 | 31.41368 | 389 ft | 14 kts | 345° |
| 2026-05-08 16:55 | 30.11530 | 31.41324 | 389 ft | 18 kts | 342° |
| 2026-05-08 16:55 | 30.11655 | 31.41278 | 389 ft | 18 kts | 338° |
| 2026-05-08 16:55 | 30.11785 | 31.41221 | 389 ft | 22 kts | 341° |
| 2026-05-08 16:55 | 30.11936 | 31.41166 | 389 ft | 24 kts | 344° |
| 2026-05-08 16:56 | 30.12083 | 31.41104 | 389 ft | 23 kts | 341° |
| 2026-05-08 16:56 | 30.12242 | 31.41042 | 389 ft | 25 kts | 345° |
| 2026-05-08 16:56 | 30.12384 | 31.40980 | 389 ft | 19 kts | 335° |
| 2026-05-08 16:56 | 30.12501 | 31.40933 | 389 ft | 19 kts | 343° |
| 2026-05-08 16:57 | 30.12630 | 31.40888 | 389 ft | 19 kts | 342° |
| 2026-05-08 16:57 | 30.12746 | 31.40838 | 389 ft | 18 kts | 339° |
| 2026-05-08 16:57 | 30.12871 | 31.40787 | 389 ft | 19 kts | 341° |
| 2026-05-08 16:57 | 30.12996 | 31.40734 | 389 ft | 21 kts | 342° |
| 2026-05-08 16:58 | 30.13108 | 31.40690 | 389 ft | 16 kts | 342° |
| 2026-05-08 16:58 | 30.13199 | 31.40656 | 389 ft | 8 kts | 341° |
| 2026-05-08 16:58 | 30.13223 | 31.40634 | 389 ft | 3 kts | 243° |
| 2026-05-08 16:58 | 30.13209 | 31.40596 | 389 ft | 9 kts | 248° |
| 2026-05-08 16:59 | 30.13208 | 31.40563 | 389 ft | 7 kts | 291° |
| 2026-05-08 16:59 | 30.13230 | 31.40536 | 389 ft | 0 kts | 323° |
| 2026-05-08 16:59 | 30.13249 | 31.40520 | 389 ft | 6 kts | 322° |
| 2026-05-08 16:59 | 30.13253 | 31.40516 | 389 ft | 0 kts | 322° |